sensor_id;sensor_type;location;lat;lon;timestamp;P1;durP1;ratioP1;P2;durP2;ratioP2
17650;SDS011;26663;59.302;18.082;2023-03-11T00:00:30;9.47;;;5.30;;
17650;SDS011;26663;59.302;18.082;2023-03-11T00:03:36;9.37;;;5.23;;
17650;SDS011;26663;59.302;18.082;2023-03-11T00:06:42;8.40;;;5.37;;
17650;SDS011;26663;59.302;18.082;2023-03-11T00:09:48;9.67;;;4.87;;
17650;SDS011;26663;59.302;18.082;2023-03-11T00:12:54;6.77;;;5.17;;
17650;SDS011;26663;59.302;18.082;2023-03-11T00:15:59;6.13;;;4.80;;
17650;SDS011;26663;59.302;18.082;2023-03-11T00:19:04;5.73;;;4.40;;
17650;SDS011;26663;59.302;18.082;2023-03-11T00:22:10;4.27;;;3.87;;
17650;SDS011;26663;59.302;18.082;2023-03-11T00:25:16;7.43;;;4.27;;
17650;SDS011;26663;59.302;18.082;2023-03-11T00:28:22;5.83;;;4.87;;
17650;SDS011;26663;59.302;18.082;2023-03-11T00:31:28;8.77;;;4.97;;
17650;SDS011;26663;59.302;18.082;2023-03-11T00:34:33;8.47;;;4.53;;
17650;SDS011;26663;59.302;18.082;2023-03-11T00:37:39;5.07;;;4.57;;
17650;SDS011;26663;59.302;18.082;2023-03-11T00:40:46;9.00;;;4.93;;
17650;SDS011;26663;59.302;18.082;2023-03-11T00:43:51;7.83;;;5.60;;
17650;SDS011;26663;59.302;18.082;2023-03-11T00:46:57;9.37;;;5.63;;
17650;SDS011;26663;59.302;18.082;2023-03-11T00:50:03;7.70;;;5.73;;
17650;SDS011;26663;59.302;18.082;2023-03-11T00:53:10;6.93;;;5.43;;
17650;SDS011;26663;59.302;18.082;2023-03-11T00:56:17;5.97;;;4.90;;
17650;SDS011;26663;59.302;18.082;2023-03-11T00:59:22;8.13;;;5.40;;
17650;SDS011;26663;59.302;18.082;2023-03-11T01:02:27;11.57;;;5.50;;
17650;SDS011;26663;59.302;18.082;2023-03-11T01:05:33;7.43;;;5.70;;
17650;SDS011;26663;59.302;18.082;2023-03-11T01:08:38;5.87;;;5.27;;
17650;SDS011;26663;59.302;18.082;2023-03-11T01:11:46;5.53;;;4.90;;
17650;SDS011;26663;59.302;18.082;2023-03-11T01:14:51;7.23;;;5.70;;
17650;SDS011;26663;59.302;18.082;2023-03-11T01:17:56;6.13;;;5.53;;
17650;SDS011;26663;59.302;18.082;2023-03-11T01:21:02;7.13;;;5.80;;
17650;SDS011;26663;59.302;18.082;2023-03-11T01:24:09;9.50;;;5.60;;
17650;SDS011;26663;59.302;18.082;2023-03-11T01:27:15;5.53;;;5.03;;
17650;SDS011;26663;59.302;18.082;2023-03-11T01:30:22;8.37;;;6.03;;
17650;SDS011;26663;59.302;18.082;2023-03-11T01:33:27;8.00;;;5.73;;
17650;SDS011;26663;59.302;18.082;2023-03-11T01:36:34;7.27;;;5.73;;
17650;SDS011;26663;59.302;18.082;2023-03-11T01:39:39;7.70;;;6.10;;
17650;SDS011;26663;59.302;18.082;2023-03-11T01:42:48;9.13;;;5.73;;
17650;SDS011;26663;59.302;18.082;2023-03-11T01:46:11;8.10;;;6.10;;
17650;SDS011;26663;59.302;18.082;2023-03-11T01:49:20;6.73;;;5.47;;
17650;SDS011;26663;59.302;18.082;2023-03-11T01:52:26;10.10;;;5.60;;
17650;SDS011;26663;59.302;18.082;2023-03-11T01:55:32;7.53;;;5.53;;
17650;SDS011;26663;59.302;18.082;2023-03-11T01:58:40;6.93;;;5.70;;
17650;SDS011;26663;59.302;18.082;2023-03-11T02:01:48;6.90;;;5.90;;
17650;SDS011;26663;59.302;18.082;2023-03-11T02:04:58;6.00;;;5.40;;
17650;SDS011;26663;59.302;18.082;2023-03-11T02:08:05;7.63;;;5.60;;
17650;SDS011;26663;59.302;18.082;2023-03-11T02:11:14;6.77;;;5.50;;
17650;SDS011;26663;59.302;18.082;2023-03-11T02:14:22;8.87;;;5.70;;
17650;SDS011;26663;59.302;18.082;2023-03-11T02:17:29;6.03;;;5.40;;
17650;SDS011;26663;59.302;18.082;2023-03-11T02:20:37;6.37;;;5.70;;
17650;SDS011;26663;59.302;18.082;2023-03-11T02:23:48;7.07;;;5.83;;
17650;SDS011;26663;59.302;18.082;2023-03-11T02:26:59;7.63;;;5.33;;
17650;SDS011;26663;59.302;18.082;2023-03-11T02:30:06;7.37;;;5.50;;
17650;SDS011;26663;59.302;18.082;2023-03-11T02:33:13;6.60;;;5.63;;
17650;SDS011;26663;59.302;18.082;2023-03-11T02:36:32;7.03;;;5.57;;
17650;SDS011;26663;59.302;18.082;2023-03-11T02:39:40;9.10;;;5.93;;
17650;SDS011;26663;59.302;18.082;2023-03-11T02:42:50;6.10;;;5.30;;
17650;SDS011;26663;59.302;18.082;2023-03-11T02:45:56;7.43;;;6.03;;
17650;SDS011;26663;59.302;18.082;2023-03-11T02:49:02;10.53;;;6.20;;
17650;SDS011;26663;59.302;18.082;2023-03-11T02:52:10;7.93;;;6.00;;
17650;SDS011;26663;59.302;18.082;2023-03-11T02:55:15;7.00;;;6.00;;
17650;SDS011;26663;59.302;18.082;2023-03-11T02:58:23;8.83;;;5.83;;
17650;SDS011;26663;59.302;18.082;2023-03-11T03:01:28;8.90;;;5.77;;
17650;SDS011;26663;59.302;18.082;2023-03-11T03:04:34;13.37;;;6.10;;
17650;SDS011;26663;59.302;18.082;2023-03-11T03:07:40;10.00;;;6.00;;
17650;SDS011;26663;59.302;18.082;2023-03-11T03:10:45;7.53;;;5.90;;
17650;SDS011;26663;59.302;18.082;2023-03-11T03:13:51;7.10;;;5.60;;
17650;SDS011;26663;59.302;18.082;2023-03-11T03:16:57;7.13;;;5.50;;
17650;SDS011;26663;59.302;18.082;2023-03-11T03:20:03;8.10;;;6.00;;
17650;SDS011;26663;59.302;18.082;2023-03-11T03:23:15;10.30;;;6.70;;
17650;SDS011;26663;59.302;18.082;2023-03-11T03:26:21;6.23;;;5.63;;
17650;SDS011;26663;59.302;18.082;2023-03-11T03:29:27;5.97;;;5.37;;
17650;SDS011;26663;59.302;18.082;2023-03-11T03:32:33;3.70;;;3.40;;
17650;SDS011;26663;59.302;18.082;2023-03-11T03:35:42;3.33;;;3.13;;
17650;SDS011;26663;59.302;18.082;2023-03-11T03:38:55;3.17;;;2.97;;
17650;SDS011;26663;59.302;18.082;2023-03-11T03:42:06;3.00;;;2.80;;
17650;SDS011;26663;59.302;18.082;2023-03-11T03:45:16;2.60;;;2.57;;
17650;SDS011;26663;59.302;18.082;2023-03-11T03:48:23;2.63;;;2.43;;
17650;SDS011;26663;59.302;18.082;2023-03-11T03:51:29;3.27;;;3.07;;
17650;SDS011;26663;59.302;18.082;2023-03-11T03:54:46;3.37;;;3.27;;
17650;SDS011;26663;59.302;18.082;2023-03-11T03:57:51;2.90;;;2.80;;
17650;SDS011;26663;59.302;18.082;2023-03-11T04:01:01;3.20;;;2.90;;
17650;SDS011;26663;59.302;18.082;2023-03-11T04:04:10;5.83;;;3.50;;
17650;SDS011;26663;59.302;18.082;2023-03-11T04:07:15;5.60;;;4.00;;
17650;SDS011;26663;59.302;18.082;2023-03-11T04:10:21;5.37;;;4.83;;
17650;SDS011;26663;59.302;18.082;2023-03-11T04:13:26;5.10;;;4.70;;
17650;SDS011;26663;59.302;18.082;2023-03-11T04:16:33;4.23;;;3.93;;
17650;SDS011;26663;59.302;18.082;2023-03-11T04:19:43;4.13;;;3.53;;
17650;SDS011;26663;59.302;18.082;2023-03-11T04:22:48;3.37;;;3.00;;
17650;SDS011;26663;59.302;18.082;2023-03-11T04:25:57;3.17;;;2.60;;
17650;SDS011;26663;59.302;18.082;2023-03-11T04:29:02;2.50;;;2.40;;
17650;SDS011;26663;59.302;18.082;2023-03-11T04:32:15;2.57;;;2.47;;
17650;SDS011;26663;59.302;18.082;2023-03-11T04:35:21;2.60;;;2.50;;
17650;SDS011;26663;59.302;18.082;2023-03-11T04:38:27;2.57;;;2.47;;
17650;SDS011;26663;59.302;18.082;2023-03-11T04:41:33;2.40;;;2.30;;
17650;SDS011;26663;59.302;18.082;2023-03-11T04:44:40;2.60;;;2.50;;
17650;SDS011;26663;59.302;18.082;2023-03-11T04:47:47;5.73;;;2.50;;
17650;SDS011;26663;59.302;18.082;2023-03-11T04:50:54;3.07;;;2.47;;
17650;SDS011;26663;59.302;18.082;2023-03-11T04:54:00;2.33;;;2.23;;
17650;SDS011;26663;59.302;18.082;2023-03-11T04:57:06;2.33;;;2.23;;
17650;SDS011;26663;59.302;18.082;2023-03-11T05:00:13;2.27;;;2.17;;
17650;SDS011;26663;59.302;18.082;2023-03-11T05:03:27;3.10;;;2.80;;
17650;SDS011;26663;59.302;18.082;2023-03-11T05:06:32;4.13;;;3.33;;
17650;SDS011;26663;59.302;18.082;2023-03-11T05:09:38;3.43;;;3.13;;
17650;SDS011;26663;59.302;18.082;2023-03-11T05:12:44;3.20;;;3.10;;
17650;SDS011;26663;59.302;18.082;2023-03-11T05:15:49;2.90;;;2.80;;
17650;SDS011;26663;59.302;18.082;2023-03-11T05:18:57;3.50;;;3.30;;
17650;SDS011;26663;59.302;18.082;2023-03-11T05:22:03;3.13;;;2.93;;
17650;SDS011;26663;59.302;18.082;2023-03-11T05:25:09;3.17;;;3.00;;
17650;SDS011;26663;59.302;18.082;2023-03-11T05:28:24;3.37;;;3.10;;
17650;SDS011;26663;59.302;18.082;2023-03-11T05:31:29;3.37;;;3.07;;
17650;SDS011;26663;59.302;18.082;2023-03-11T05:34:37;3.37;;;3.10;;
17650;SDS011;26663;59.302;18.082;2023-03-11T05:37:43;3.57;;;3.23;;
17650;SDS011;26663;59.302;18.082;2023-03-11T05:40:52;3.40;;;3.10;;
17650;SDS011;26663;59.302;18.082;2023-03-11T05:43:57;2.80;;;2.70;;
17650;SDS011;26663;59.302;18.082;2023-03-11T05:47:03;3.10;;;2.90;;
17650;SDS011;26663;59.302;18.082;2023-03-11T05:50:11;3.10;;;2.90;;
17650;SDS011;26663;59.302;18.082;2023-03-11T05:53:19;3.23;;;2.33;;
17650;SDS011;26663;59.302;18.082;2023-03-11T05:56:24;2.27;;;2.07;;
17650;SDS011;26663;59.302;18.082;2023-03-11T05:59:30;2.00;;;1.90;;
17650;SDS011;26663;59.302;18.082;2023-03-11T06:02:40;2.07;;;2.07;;
17650;SDS011;26663;59.302;18.082;2023-03-11T06:05:50;2.30;;;2.20;;
17650;SDS011;26663;59.302;18.082;2023-03-11T06:08:56;2.57;;;2.40;;
17650;SDS011;26663;59.302;18.082;2023-03-11T06:12:04;2.20;;;2.10;;
17650;SDS011;26663;59.302;18.082;2023-03-11T06:15:43;1.93;;;1.93;;
17650;SDS011;26663;59.302;18.082;2023-03-11T06:18:48;1.93;;;1.90;;
17650;SDS011;26663;59.302;18.082;2023-03-11T06:21:55;2.53;;;2.50;;
17650;SDS011;26663;59.302;18.082;2023-03-11T06:25:01;2.87;;;1.97;;
17650;SDS011;26663;59.302;18.082;2023-03-11T06:28:09;1.80;;;1.70;;
17650;SDS011;26663;59.302;18.082;2023-03-11T06:31:17;2.40;;;2.10;;
17650;SDS011;26663;59.302;18.082;2023-03-11T06:34:24;2.27;;;2.27;;
17650;SDS011;26663;59.302;18.082;2023-03-11T06:37:31;2.10;;;2.00;;
17650;SDS011;26663;59.302;18.082;2023-03-11T06:40:38;2.53;;;2.40;;
17650;SDS011;26663;59.302;18.082;2023-03-11T06:43:44;2.73;;;2.53;;
17650;SDS011;26663;59.302;18.082;2023-03-11T06:46:49;3.10;;;2.70;;
17650;SDS011;26663;59.302;18.082;2023-03-11T06:49:54;2.83;;;2.73;;
17650;SDS011;26663;59.302;18.082;2023-03-11T06:53:02;2.70;;;2.50;;
17650;SDS011;26663;59.302;18.082;2023-03-11T06:56:11;2.30;;;2.20;;
17650;SDS011;26663;59.302;18.082;2023-03-11T06:59:22;2.63;;;2.40;;
17650;SDS011;26663;59.302;18.082;2023-03-11T07:02:27;2.37;;;2.20;;
17650;SDS011;26663;59.302;18.082;2023-03-11T07:05:32;2.20;;;2.10;;
17650;SDS011;26663;59.302;18.082;2023-03-11T07:08:43;2.10;;;2.00;;
17650;SDS011;26663;59.302;18.082;2023-03-11T07:11:50;2.20;;;2.20;;
17650;SDS011;26663;59.302;18.082;2023-03-11T07:15:05;2.20;;;2.10;;
17650;SDS011;26663;59.302;18.082;2023-03-11T07:18:11;3.33;;;2.20;;
17650;SDS011;26663;59.302;18.082;2023-03-11T07:21:18;1.97;;;1.83;;
17650;SDS011;26663;59.302;18.082;2023-03-11T07:24:25;2.13;;;1.90;;
17650;SDS011;26663;59.302;18.082;2023-03-11T07:27:31;2.10;;;2.00;;
17650;SDS011;26663;59.302;18.082;2023-03-11T07:30:37;2.40;;;2.20;;
17650;SDS011;26663;59.302;18.082;2023-03-11T07:33:42;2.90;;;2.70;;
17650;SDS011;26663;59.302;18.082;2023-03-11T07:36:47;2.90;;;2.73;;
17650;SDS011;26663;59.302;18.082;2023-03-11T07:39:54;3.30;;;2.80;;
17650;SDS011;26663;59.302;18.082;2023-03-11T07:42:59;2.63;;;2.43;;
17650;SDS011;26663;59.302;18.082;2023-03-11T07:46:05;4.17;;;3.67;;
17650;SDS011;26663;59.302;18.082;2023-03-11T07:49:12;4.83;;;2.60;;
17650;SDS011;26663;59.302;18.082;2023-03-11T07:52:18;2.30;;;2.10;;
17650;SDS011;26663;59.302;18.082;2023-03-11T07:55:24;1.83;;;1.80;;
17650;SDS011;26663;59.302;18.082;2023-03-11T07:58:29;2.00;;;1.90;;
17650;SDS011;26663;59.302;18.082;2023-03-11T08:01:34;1.87;;;1.77;;
17650;SDS011;26663;59.302;18.082;2023-03-11T08:04:42;1.60;;;1.60;;
17650;SDS011;26663;59.302;18.082;2023-03-11T08:07:48;2.00;;;1.83;;
17650;SDS011;26663;59.302;18.082;2023-03-11T08:10:54;2.40;;;2.30;;
17650;SDS011;26663;59.302;18.082;2023-03-11T08:13:59;4.33;;;2.50;;
17650;SDS011;26663;59.302;18.082;2023-03-11T08:17:05;2.63;;;2.53;;
17650;SDS011;26663;59.302;18.082;2023-03-11T08:20:11;2.30;;;2.20;;
17650;SDS011;26663;59.302;18.082;2023-03-11T08:23:16;1.70;;;1.70;;
17650;SDS011;26663;59.302;18.082;2023-03-11T08:26:23;1.73;;;1.63;;
17650;SDS011;26663;59.302;18.082;2023-03-11T08:29:28;2.07;;;1.97;;
17650;SDS011;26663;59.302;18.082;2023-03-11T08:32:34;2.53;;;2.20;;
17650;SDS011;26663;59.302;18.082;2023-03-11T08:35:39;2.77;;;2.07;;
17650;SDS011;26663;59.302;18.082;2023-03-11T08:38:45;1.93;;;1.87;;
17650;SDS011;26663;59.302;18.082;2023-03-11T08:41:52;2.47;;;2.37;;
17650;SDS011;26663;59.302;18.082;2023-03-11T08:44:57;2.10;;;2.00;;
17650;SDS011;26663;59.302;18.082;2023-03-11T08:48:03;1.90;;;1.90;;
17650;SDS011;26663;59.302;18.082;2023-03-11T08:51:10;2.00;;;2.00;;
17650;SDS011;26663;59.302;18.082;2023-03-11T08:54:15;2.27;;;2.10;;
17650;SDS011;26663;59.302;18.082;2023-03-11T08:57:22;2.27;;;2.07;;
17650;SDS011;26663;59.302;18.082;2023-03-11T09:00:27;3.13;;;2.10;;
17650;SDS011;26663;59.302;18.082;2023-03-11T09:03:33;2.10;;;2.00;;
17650;SDS011;26663;59.302;18.082;2023-03-11T09:06:40;6.83;;;2.00;;
17650;SDS011;26663;59.302;18.082;2023-03-11T09:09:45;2.47;;;2.30;;
17650;SDS011;26663;59.302;18.082;2023-03-11T09:12:52;28.57;;;10.20;;
17650;SDS011;26663;59.302;18.082;2023-03-11T09:15:57;24.13;;;10.73;;
17650;SDS011;26663;59.302;18.082;2023-03-11T09:19:02;4.37;;;2.80;;
17650;SDS011;26663;59.302;18.082;2023-03-11T09:22:11;2.60;;;2.50;;
17650;SDS011;26663;59.302;18.082;2023-03-11T09:25:16;3.27;;;2.00;;
17650;SDS011;26663;59.302;18.082;2023-03-11T09:28:22;2.20;;;2.10;;
17650;SDS011;26663;59.302;18.082;2023-03-11T09:31:27;2.43;;;2.33;;
17650;SDS011;26663;59.302;18.082;2023-03-11T09:34:33;2.80;;;2.60;;
17650;SDS011;26663;59.302;18.082;2023-03-11T09:37:38;3.03;;;2.83;;
17650;SDS011;26663;59.302;18.082;2023-03-11T09:40:48;2.40;;;2.40;;
17650;SDS011;26663;59.302;18.082;2023-03-11T09:44:01;2.30;;;1.90;;
17650;SDS011;26663;59.302;18.082;2023-03-11T09:47:17;2.73;;;2.53;;
17650;SDS011;26663;59.302;18.082;2023-03-11T09:50:28;4.63;;;2.50;;
17650;SDS011;26663;59.302;18.082;2023-03-11T09:53:35;2.57;;;2.47;;
17650;SDS011;26663;59.302;18.082;2023-03-11T09:56:43;2.97;;;2.47;;
17650;SDS011;26663;59.302;18.082;2023-03-11T09:59:50;2.77;;;2.57;;
17650;SDS011;26663;59.302;18.082;2023-03-11T10:02:55;2.67;;;2.57;;
17650;SDS011;26663;59.302;18.082;2023-03-11T10:06:03;2.30;;;2.20;;
17650;SDS011;26663;59.302;18.082;2023-03-11T10:09:24;3.67;;;2.60;;
17650;SDS011;26663;59.302;18.082;2023-03-11T10:12:40;2.83;;;2.73;;
17650;SDS011;26663;59.302;18.082;2023-03-11T10:15:51;1.97;;;1.90;;
17650;SDS011;26663;59.302;18.082;2023-03-11T10:19:00;3.40;;;2.50;;
17650;SDS011;26663;59.302;18.082;2023-03-11T10:22:10;2.33;;;2.27;;
17650;SDS011;26663;59.302;18.082;2023-03-11T10:25:19;2.70;;;2.40;;
17650;SDS011;26663;59.302;18.082;2023-03-11T10:28:29;2.87;;;2.40;;
17650;SDS011;26663;59.302;18.082;2023-03-11T10:31:39;2.50;;;2.40;;
17650;SDS011;26663;59.302;18.082;2023-03-11T10:34:46;2.40;;;2.30;;
17650;SDS011;26663;59.302;18.082;2023-03-11T10:37:55;3.03;;;2.90;;
17650;SDS011;26663;59.302;18.082;2023-03-11T10:41:04;2.57;;;2.50;;
17650;SDS011;26663;59.302;18.082;2023-03-11T10:44:16;2.63;;;2.53;;
17650;SDS011;26663;59.302;18.082;2023-03-11T10:47:27;4.03;;;2.27;;
17650;SDS011;26663;59.302;18.082;2023-03-11T10:50:33;2.40;;;2.30;;
17650;SDS011;26663;59.302;18.082;2023-03-11T10:53:42;2.67;;;2.37;;
17650;SDS011;26663;59.302;18.082;2023-03-11T10:56:48;2.77;;;2.63;;
17650;SDS011;26663;59.302;18.082;2023-03-11T10:59:57;2.40;;;2.20;;
17650;SDS011;26663;59.302;18.082;2023-03-11T11:03:10;4.97;;;2.10;;
17650;SDS011;26663;59.302;18.082;2023-03-11T11:06:23;2.77;;;2.57;;
17650;SDS011;26663;59.302;18.082;2023-03-11T11:09:30;2.60;;;2.50;;
17650;SDS011;26663;59.302;18.082;2023-03-11T11:12:35;4.00;;;2.20;;
17650;SDS011;26663;59.302;18.082;2023-03-11T11:15:41;2.90;;;2.70;;
17650;SDS011;26663;59.302;18.082;2023-03-11T11:18:56;3.17;;;3.00;;
17650;SDS011;26663;59.302;18.082;2023-03-11T11:22:05;3.33;;;3.13;;
17650;SDS011;26663;59.302;18.082;2023-03-11T11:25:23;2.60;;;2.60;;
17650;SDS011;26663;59.302;18.082;2023-03-11T11:28:33;3.00;;;2.63;;
17650;SDS011;26663;59.302;18.082;2023-03-11T11:31:39;2.07;;;2.07;;
17650;SDS011;26663;59.302;18.082;2023-03-11T11:34:55;2.90;;;2.80;;
17650;SDS011;26663;59.302;18.082;2023-03-11T11:38:02;2.90;;;2.70;;
17650;SDS011;26663;59.302;18.082;2023-03-11T11:41:12;2.80;;;2.60;;
17650;SDS011;26663;59.302;18.082;2023-03-11T11:44:21;4.30;;;2.60;;
17650;SDS011;26663;59.302;18.082;2023-03-11T11:47:29;3.43;;;3.27;;
17650;SDS011;26663;59.302;18.082;2023-03-11T11:50:39;2.67;;;2.47;;
17650;SDS011;26663;59.302;18.082;2023-03-11T11:53:46;2.80;;;2.60;;
17650;SDS011;26663;59.302;18.082;2023-03-11T11:56:54;2.40;;;2.40;;
17650;SDS011;26663;59.302;18.082;2023-03-11T12:00:00;2.63;;;2.57;;
17650;SDS011;26663;59.302;18.082;2023-03-11T12:03:18;2.70;;;2.60;;
17650;SDS011;26663;59.302;18.082;2023-03-11T12:06:36;2.73;;;2.63;;
17650;SDS011;26663;59.302;18.082;2023-03-11T12:09:46;4.10;;;2.40;;
17650;SDS011;26663;59.302;18.082;2023-03-11T12:16:40;2.40;;;2.30;;
17650;SDS011;26663;59.302;18.082;2023-03-11T12:19:47;3.07;;;2.90;;
17650;SDS011;26663;59.302;18.082;2023-03-11T12:23:00;2.77;;;2.73;;
17650;SDS011;26663;59.302;18.082;2023-03-11T12:26:19;3.53;;;3.10;;
17650;SDS011;26663;59.302;18.082;2023-03-11T12:29:27;3.17;;;2.97;;
17650;SDS011;26663;59.302;18.082;2023-03-11T12:32:35;3.43;;;2.70;;
17650;SDS011;26663;59.302;18.082;2023-03-11T12:35:47;2.00;;;2.00;;
17650;SDS011;26663;59.302;18.082;2023-03-11T12:38:55;1.90;;;1.90;;
17650;SDS011;26663;59.302;18.082;2023-03-11T12:42:16;2.50;;;2.37;;
17650;SDS011;26663;59.302;18.082;2023-03-11T12:48:57;3.53;;;3.17;;
17650;SDS011;26663;59.302;18.082;2023-03-11T12:52:20;4.03;;;3.37;;
17650;SDS011;26663;59.302;18.082;2023-03-11T12:55:33;3.67;;;3.37;;
17650;SDS011;26663;59.302;18.082;2023-03-11T12:58:58;3.47;;;3.27;;
17650;SDS011;26663;59.302;18.082;2023-03-11T13:02:18;5.97;;;3.77;;
17650;SDS011;26663;59.302;18.082;2023-03-11T13:05:31;6.50;;;4.73;;
17650;SDS011;26663;59.302;18.082;2023-03-11T13:08:48;3.03;;;2.77;;
17650;SDS011;26663;59.302;18.082;2023-03-11T13:11:57;3.20;;;2.90;;
17650;SDS011;26663;59.302;18.082;2023-03-11T13:15:18;4.03;;;3.80;;
17650;SDS011;26663;59.302;18.082;2023-03-11T13:18:33;3.07;;;2.87;;
17650;SDS011;26663;59.302;18.082;2023-03-11T13:21:38;5.13;;;3.30;;
17650;SDS011;26663;59.302;18.082;2023-03-11T13:24:50;2.80;;;2.70;;
17650;SDS011;26663;59.302;18.082;2023-03-11T13:27:57;3.10;;;2.90;;
17650;SDS011;26663;59.302;18.082;2023-03-11T13:31:16;2.90;;;2.80;;
17650;SDS011;26663;59.302;18.082;2023-03-11T13:34:27;2.33;;;2.23;;
17650;SDS011;26663;59.302;18.082;2023-03-11T13:37:41;3.27;;;3.00;;
17650;SDS011;26663;59.302;18.082;2023-03-11T13:40:52;4.03;;;3.73;;
17650;SDS011;26663;59.302;18.082;2023-03-11T13:44:02;6.03;;;4.80;;
17650;SDS011;26663;59.302;18.082;2023-03-11T13:47:13;2.90;;;2.80;;
17650;SDS011;26663;59.302;18.082;2023-03-11T13:50:19;3.10;;;2.87;;
17650;SDS011;26663;59.302;18.082;2023-03-11T13:53:29;4.63;;;3.87;;
17650;SDS011;26663;59.302;18.082;2023-03-11T13:56:38;2.70;;;2.70;;
17650;SDS011;26663;59.302;18.082;2023-03-11T13:59:51;2.37;;;2.33;;
17650;SDS011;26663;59.302;18.082;2023-03-11T14:02:57;3.23;;;3.13;;
17650;SDS011;26663;59.302;18.082;2023-03-11T14:06:05;2.67;;;2.57;;
17650;SDS011;26663;59.302;18.082;2023-03-11T14:09:15;2.40;;;2.30;;
17650;SDS011;26663;59.302;18.082;2023-03-11T14:12:22;3.23;;;2.10;;
17650;SDS011;26663;59.302;18.082;2023-03-11T14:15:29;1.90;;;1.80;;
17650;SDS011;26663;59.302;18.082;2023-03-11T14:18:46;2.17;;;2.17;;
17650;SDS011;26663;59.302;18.082;2023-03-11T14:22:08;3.67;;;2.97;;
17650;SDS011;26663;59.302;18.082;2023-03-11T14:25:15;2.40;;;2.30;;
17650;SDS011;26663;59.302;18.082;2023-03-11T14:28:22;2.67;;;2.53;;
17650;SDS011;26663;59.302;18.082;2023-03-11T14:31:30;2.33;;;2.33;;
17650;SDS011;26663;59.302;18.082;2023-03-11T14:34:38;2.50;;;2.30;;
17650;SDS011;26663;59.302;18.082;2023-03-11T14:37:44;3.27;;;3.17;;
17650;SDS011;26663;59.302;18.082;2023-03-11T14:40:49;3.03;;;2.93;;
17650;SDS011;26663;59.302;18.082;2023-03-11T14:43:57;2.40;;;2.33;;
17650;SDS011;26663;59.302;18.082;2023-03-11T14:47:06;4.63;;;3.27;;
17650;SDS011;26663;59.302;18.082;2023-03-11T14:50:14;2.53;;;2.33;;
17650;SDS011;26663;59.302;18.082;2023-03-11T14:53:21;4.33;;;4.03;;
17650;SDS011;26663;59.302;18.082;2023-03-11T14:56:28;3.20;;;3.00;;
17650;SDS011;26663;59.302;18.082;2023-03-11T14:59:34;8.17;;;3.63;;
17650;SDS011;26663;59.302;18.082;2023-03-11T15:02:43;2.20;;;2.10;;
17650;SDS011;26663;59.302;18.082;2023-03-11T15:06:00;3.70;;;2.20;;
17650;SDS011;26663;59.302;18.082;2023-03-11T15:09:11;1.70;;;1.60;;
17650;SDS011;26663;59.302;18.082;2023-03-11T15:15:38;1.70;;;1.70;;
17650;SDS011;26663;59.302;18.082;2023-03-11T15:18:45;1.40;;;1.40;;
17650;SDS011;26663;59.302;18.082;2023-03-11T15:21:50;1.30;;;1.30;;
17650;SDS011;26663;59.302;18.082;2023-03-11T15:24:58;1.70;;;1.30;;
17650;SDS011;26663;59.302;18.082;2023-03-11T15:28:14;1.30;;;1.30;;
17650;SDS011;26663;59.302;18.082;2023-03-11T15:31:30;1.30;;;1.30;;
17650;SDS011;26663;59.302;18.082;2023-03-11T15:34:38;1.60;;;1.53;;
17650;SDS011;26663;59.302;18.082;2023-03-11T15:37:44;2.60;;;1.67;;
17650;SDS011;26663;59.302;18.082;2023-03-11T15:40:51;1.53;;;1.53;;
17650;SDS011;26663;59.302;18.082;2023-03-11T15:43:57;4.83;;;3.20;;
17650;SDS011;26663;59.302;18.082;2023-03-11T15:47:06;2.80;;;2.70;;
17650;SDS011;26663;59.302;18.082;2023-03-11T15:50:19;1.60;;;1.60;;
17650;SDS011;26663;59.302;18.082;2023-03-11T15:53:48;1.50;;;1.50;;
17650;SDS011;26663;59.302;18.082;2023-03-11T15:56:53;1.20;;;1.20;;
17650;SDS011;26663;59.302;18.082;2023-03-11T15:59:59;1.30;;;1.30;;
17650;SDS011;26663;59.302;18.082;2023-03-11T16:03:09;1.20;;;1.20;;
17650;SDS011;26663;59.302;18.082;2023-03-11T16:06:17;1.40;;;1.40;;
17650;SDS011;26663;59.302;18.082;2023-03-11T16:09:24;1.40;;;1.40;;
17650;SDS011;26663;59.302;18.082;2023-03-11T16:12:29;1.30;;;1.27;;
17650;SDS011;26663;59.302;18.082;2023-03-11T16:15:35;1.37;;;1.30;;
17650;SDS011;26663;59.302;18.082;2023-03-11T16:18:40;1.30;;;1.30;;
17650;SDS011;26663;59.302;18.082;2023-03-11T16:21:47;2.23;;;1.70;;
17650;SDS011;26663;59.302;18.082;2023-03-11T16:24:53;1.37;;;1.37;;
17650;SDS011;26663;59.302;18.082;2023-03-11T16:27:58;1.77;;;1.67;;
17650;SDS011;26663;59.302;18.082;2023-03-11T16:31:05;1.30;;;1.30;;
17650;SDS011;26663;59.302;18.082;2023-03-11T16:34:11;2.73;;;1.30;;
17650;SDS011;26663;59.302;18.082;2023-03-11T16:37:17;1.70;;;1.60;;
17650;SDS011;26663;59.302;18.082;2023-03-11T16:40:24;2.73;;;1.30;;
17650;SDS011;26663;59.302;18.082;2023-03-11T16:43:30;1.50;;;1.40;;
17650;SDS011;26663;59.302;18.082;2023-03-11T16:46:35;1.67;;;1.67;;
17650;SDS011;26663;59.302;18.082;2023-03-11T16:49:41;1.80;;;1.70;;
17650;SDS011;26663;59.302;18.082;2023-03-11T16:52:48;1.60;;;1.60;;
17650;SDS011;26663;59.302;18.082;2023-03-11T16:55:53;1.47;;;1.43;;
17650;SDS011;26663;59.302;18.082;2023-03-11T16:58:58;1.40;;;1.40;;
17650;SDS011;26663;59.302;18.082;2023-03-11T17:02:04;1.63;;;1.63;;
17650;SDS011;26663;59.302;18.082;2023-03-11T17:05:09;1.43;;;1.20;;
17650;SDS011;26663;59.302;18.082;2023-03-11T17:08:16;1.40;;;1.30;;
17650;SDS011;26663;59.302;18.082;2023-03-11T17:11:22;1.60;;;1.60;;
17650;SDS011;26663;59.302;18.082;2023-03-11T17:14:30;1.73;;;1.40;;
17650;SDS011;26663;59.302;18.082;2023-03-11T17:17:35;1.50;;;1.50;;
17650;SDS011;26663;59.302;18.082;2023-03-11T17:20:40;3.33;;;1.70;;
17650;SDS011;26663;59.302;18.082;2023-03-11T17:23:48;1.60;;;1.60;;
17650;SDS011;26663;59.302;18.082;2023-03-11T17:26:55;2.70;;;1.63;;
17650;SDS011;26663;59.302;18.082;2023-03-11T17:30:01;1.93;;;1.80;;
17650;SDS011;26663;59.302;18.082;2023-03-11T17:33:09;1.77;;;1.70;;
17650;SDS011;26663;59.302;18.082;2023-03-11T17:36:15;5.60;;;2.50;;
17650;SDS011;26663;59.302;18.082;2023-03-11T17:39:22;2.50;;;2.30;;
17650;SDS011;26663;59.302;18.082;2023-03-11T17:42:27;1.50;;;1.50;;
17650;SDS011;26663;59.302;18.082;2023-03-11T17:45:32;1.93;;;1.90;;
17650;SDS011;26663;59.302;18.082;2023-03-11T17:48:37;2.30;;;1.60;;
17650;SDS011;26663;59.302;18.082;2023-03-11T17:51:42;1.77;;;1.67;;
17650;SDS011;26663;59.302;18.082;2023-03-11T17:54:49;1.40;;;1.40;;
17650;SDS011;26663;59.302;18.082;2023-03-11T17:57:55;1.70;;;1.70;;
17650;SDS011;26663;59.302;18.082;2023-03-11T18:01:01;3.07;;;1.77;;
17650;SDS011;26663;59.302;18.082;2023-03-11T18:04:08;1.83;;;1.70;;
17650;SDS011;26663;59.302;18.082;2023-03-11T18:07:14;1.67;;;1.67;;
17650;SDS011;26663;59.302;18.082;2023-03-11T18:10:20;1.73;;;1.57;;
17650;SDS011;26663;59.302;18.082;2023-03-11T18:13:25;1.90;;;1.90;;
17650;SDS011;26663;59.302;18.082;2023-03-11T18:16:30;2.03;;;1.93;;
17650;SDS011;26663;59.302;18.082;2023-03-11T18:19:36;2.97;;;2.10;;
17650;SDS011;26663;59.302;18.082;2023-03-11T18:22:41;3.33;;;2.20;;
17650;SDS011;26663;59.302;18.082;2023-03-11T18:25:50;2.10;;;2.10;;
17650;SDS011;26663;59.302;18.082;2023-03-11T18:28:56;2.33;;;2.13;;
17650;SDS011;26663;59.302;18.082;2023-03-11T18:32:02;3.40;;;2.27;;
17650;SDS011;26663;59.302;18.082;2023-03-11T18:35:08;2.17;;;2.00;;
17650;SDS011;26663;59.302;18.082;2023-03-11T18:38:15;2.20;;;2.10;;
17650;SDS011;26663;59.302;18.082;2023-03-11T18:41:22;2.50;;;2.30;;
17650;SDS011;26663;59.302;18.082;2023-03-11T18:44:27;2.37;;;2.37;;